Time;durP1;ratioP1;P1;durP2;ratioP2;P2;SDS_P1;SDS_P2;PMS_P1;PMS_P2;Temp;Humidity;BMP_temperature;BMP_pressure;BME280_temperature;BME280_humidity;BME280_pressure;Samples;Min_cycle;Max_cycle;Signal;HPM_P1;HPM_P2
2022/04/29 00:00:24;;;;;;;5.50;1.95;;;6.90;98.20;;;;;;4232364;28;20491;-85
2022/04/29 00:02:25;;;;;;;4.65;1.95;;;6.90;98.20;;;;;;4232899;28;20040;-85
2022/04/29 00:04:27;;;;;;;10.63;2.05;;;6.90;98.40;;;;;;4232557;28;20092;-85
2022/04/29 00:06:28;;;;;;;7.38;2.22;;;7.60;98.60;;;;;;4231050;28;20043;-85
2022/04/29 00:08:29;;;;;;;6.38;1.85;;;7.10;98.60;;;;;;4232110;28;20048;-85
2022/04/29 00:10:29;;;;;;;9.48;2.05;;;6.80;98.60;;;;;;4233255;28;20043;-85
2022/04/29 00:12:30;;;;;;;6.57;2.15;;;6.80;98.70;;;;;;4198476;28;20127;-84
2022/04/29 00:14:31;;;;;;;8.38;3.70;;;6.80;98.70;;;;;;4233247;28;20089;-85
2022/04/29 00:16:32;;;;;;;4.15;2.10;;;6.80;98.70;;;;;;4233280;28;20043;-85
2022/04/29 00:18:32;;;;;;;6.28;2.40;;;7.90;99.10;;;;;;4214853;28;20105;-85
2022/04/29 00:20:34;;;;;;;5.40;1.90;;;6.70;98.80;;;;;;4232575;28;20048;-85
2022/04/29 00:22:36;;;;;;;5.55;1.90;;;6.80;99.00;;;;;;4235204;27;20047;-85
2022/04/29 00:24:37;;;;;;;7.13;1.80;;;6.80;99.00;;;;;;4249375;27;20039;-85
2022/04/29 00:26:39;;;;;;;8.38;2.25;;;6.80;99.10;;;;;;4249801;27;20465;-86
2022/04/29 00:28:40;;;;;;;6.07;1.90;;;6.70;99.10;;;;;;4215013;28;20056;-85
2022/04/29 00:30:41;;;;;;;3.65;1.88;;;6.70;99.10;;;;;;4249417;27;20118;-85
2022/04/29 00:32:42;;;;;;;5.38;2.70;;;7.10;99.30;;;;;;4233132;27;20035;-86
2022/04/29 00:34:42;;;;;;;4.97;1.80;;;7.10;99.30;;;;;;4232536;28;20408;-86
2022/04/29 00:36:43;;;;;;;8.20;2.10;;;6.70;99.50;;;;;;4233007;28;20043;-86
2022/04/29 00:38:44;;;;;;;3.85;1.88;;;6.70;99.30;;;;;;4231900;28;20063;-85
2022/04/29 00:40:45;;;;;;;6.40;1.83;;;6.70;99.40;;;;;;4233000;28;20039;-85
2022/04/29 00:42:46;;;;;;;4.60;2.05;;;6.70;99.40;;;;;;4233137;28;20515;-85
2022/04/29 00:44:47;;;;;;;6.18;2.33;;;6.70;99.40;;;;;;4232966;28;20043;-85
2022/04/29 00:46:49;;;;;;;11.40;2.15;;;7.40;99.50;;;;;;4232540;28;20047;-84
2022/04/29 00:48:51;;;;;;;7.07;2.92;;;6.60;99.40;;;;;;4231839;28;20508;-84
2022/04/29 00:50:54;;;;;;;6.90;1.88;;;6.90;99.60;;;;;;4232721;28;20440;-85
2022/04/29 00:52:57;;;;;;;3.10;2.05;;;7.10;99.70;;;;;;4231015;27;20067;-85
2022/04/29 00:55:06;;;;;;;3.97;2.10;;;6.60;99.70;;;;;;4232997;28;20050;-85
2022/04/29 00:57:10;;;;;;;7.05;2.33;;;6.60;99.70;;;;;;4232413;28;20402;-84
2022/04/29 00:59:15;;;;;;;10.10;2.38;;;6.60;99.70;;;;;;4214042;28;20055;-85
2022/04/29 01:01:16;;;;;;;6.72;2.08;;;6.50;99.60;;;;;;4230408;28;20473;-85
2022/04/29 01:03:18;;;;;;;7.75;2.95;;;6.50;99.60;;;;;;4232321;28;20075;-84
2022/04/29 01:05:25;;;;;;;6.50;2.10;;;7.00;99.70;;;;;;4232148;28;20047;-85
2022/04/29 01:07:30;;;;;;;7.78;2.22;;;7.50;99.90;;;;;;4232038;28;20047;-84
2022/04/29 01:09:30;;;;;;;7.60;2.28;;;6.40;99.60;;;;;;4232101;28;20130;-85
2022/04/29 01:11:32;;;;;;;5.65;2.20;;;7.20;99.90;;;;;;4231495;28;20040;-84
2022/04/29 01:13:34;;;;;;;4.82;2.22;;;7.90;99.90;;;;;;4230816;28;20052;-85
2022/04/29 01:15:35;;;;;;;17.67;3.65;;;7.70;99.90;;;;;;4232134;28;20036;-85
2022/04/29 01:17:38;;;;;;;6.10;2.42;;;6.50;99.90;;;;;;4235400;27;20067;-84
2022/04/29 01:19:39;;;;;;;5.30;2.20;;;7.10;99.90;;;;;;4231945;28;20054;-84
2022/04/29 01:21:41;;;;;;;4.78;1.88;;;7.80;99.90;;;;;;4232293;28;20050;-85
2022/04/29 01:23:43;;;;;;;7.63;2.72;;;7.10;99.90;;;;;;4231186;28;20048;-85
2022/04/29 01:25:44;;;;;;;9.68;2.10;;;6.40;99.90;;;;;;4231848;28;20058;-85
2022/04/29 01:27:44;;;;;;;5.93;2.40;;;7.70;99.90;;;;;;4232182;28;20483;-85
2022/04/29 01:30:09;;;;;;;5.15;2.20;;;7.40;99.90;;;;;;4232137;28;20104;-85
2022/04/29 01:32:11;;;;;;;8.13;2.80;;;6.30;99.90;;;;;;4213924;28;20055;-85
2022/04/29 01:34:12;;;;;;;2.50;1.92;;;6.30;99.90;;;;;;4213833;28;20051;-84
2022/04/29 01:36:12;;;;;;;8.23;3.35;;;7.60;99.90;;;;;;4243571;27;20475;-86
2022/04/29 01:38:13;;;;;;;6.65;2.70;;;7.40;99.90;;;;;;4249074;27;20042;-85
2022/04/29 01:40:14;;;;;;;6.97;2.67;;;6.80;99.90;;;;;;4248901;27;20079;-85
2022/04/29 01:42:16;;;;;;;5.22;2.75;;;7.60;99.90;;;;;;4249077;27;20050;-85
2022/04/29 01:44:17;;;;;;;6.00;2.63;;;7.50;99.90;;;;;;4248594;27;20051;-85
2022/04/29 01:46:17;;;;;;;9.23;3.05;;;6.90;99.90;;;;;;4248837;27;20082;-85
2022/04/29 01:48:18;;;;;;;6.95;2.80;;;7.50;99.90;;;;;;4249040;27;20067;-85
2022/04/29 01:50:19;;;;;;;7.97;3.00;;;6.90;99.90;;;;;;4248670;27;20149;-85
2022/04/29 01:52:19;;;;;;;6.45;2.97;;;6.10;99.90;;;;;;4249001;27;20039;-85
2022/04/29 01:54:20;;;;;;;10.20;3.08;;;7.30;99.90;;;;;;4248742;27;20047;-85
2022/04/29 01:56:32;;;;;;;5.72;2.55;;;6.10;99.90;;;;;;4248789;27;20039;-85
2022/04/29 01:58:33;;;;;;;5.70;3.65;;;7.60;99.90;;;;;;4248168;27;20380;-86
2022/04/29 02:00:34;;;;;;;8.10;2.83;;;7.30;99.90;;;;;;4248701;27;20049;-86
2022/04/29 02:02:34;;;;;;;6.60;3.38;;;6.70;99.90;;;;;;4248725;27;20078;-85
2022/04/29 02:04:36;;;;;;;10.98;3.20;;;7.20;99.90;;;;;;4248433;27;20046;-85
2022/04/29 02:06:38;;;;;;;7.55;2.92;;;7.10;99.90;;;;;;4230322;28;20081;-85
2022/04/29 02:08:38;;;;;;;6.78;2.67;;;6.90;99.90;;;;;;4248565;27;20083;-86
2022/04/29 02:10:39;;;;;;;7.03;3.10;;;6.90;99.90;;;;;;4248458;27;20076;-85
2022/04/29 02:12:41;;;;;;;7.72;2.80;;;7.10;99.90;;;;;;4234921;27;20043;-85
2022/04/29 02:14:42;;;;;;;8.80;3.00;;;6.60;99.90;;;;;;4231461;28;20091;-86
2022/04/29 02:16:43;;;;;;;3.65;2.42;;;6.60;99.90;;;;;;4231596;28;20043;-86
2022/04/29 02:18:44;;;;;;;6.00;2.67;;;6.00;99.90;;;;;;4231328;28;20056;-85
2022/04/29 02:20:47;;;;;;;6.95;2.72;;;7.50;99.90;;;;;;4231760;28;20039;-85
2022/04/29 02:22:48;;;;;;;10.07;3.17;;;6.80;99.90;;;;;;4231486;28;20040;-86
2022/04/29 02:24:49;;;;;;;6.28;3.47;;;6.60;99.90;;;;;;4239376;27;20039;-84
2022/04/29 02:26:49;;;;;;;7.95;3.00;;;6.00;99.90;;;;;;4246766;27;20039;-86
2022/04/29 02:28:50;;;;;;;6.00;3.22;;;7.50;99.90;;;;;;4232174;28;20502;-86
2022/04/29 02:30:51;;;;;;;8.38;3.10;;;7.00;99.90;;;;;;4231639;28;20046;-86
2022/04/29 02:32:53;;;;;;;5.82;3.25;;;6.80;99.90;;;;;;4230967;28;20040;-86
2022/04/29 02:34:54;;;;;;;4.82;2.63;;;6.30;99.90;;;;;;4231248;28;20051;-85
2022/04/29 02:36:56;;;;;;;3.70;2.75;;;6.80;99.90;;;;;;4231188;28;20046;-85
2022/04/29 02:38:56;;;;;;;6.53;2.97;;;7.30;99.90;;;;;;4231268;28;20089;-85
2022/04/29 02:40:57;;;;;;;11.88;3.08;;;7.50;99.90;;;;;;4231026;28;20040;-86
2022/04/29 02:42:58;;;;;;;9.35;3.67;;;7.40;99.90;;;;;;4230372;28;20043;-85
2022/04/29 02:44:58;;;;;;;7.45;2.83;;;6.20;99.90;;;;;;4230466;28;20438;-85
2022/04/29 02:47:08;;;;;;;8.15;2.47;;;7.70;99.90;;;;;;4212954;28;20043;-85
2022/04/29 02:49:09;;;;;;;6.68;2.70;;;6.90;99.90;;;;;;4231042;28;20043;-85
2022/04/29 02:51:10;;;;;;;6.63;2.70;;;7.60;99.90;;;;;;4230443;28;20092;-85
2022/04/29 02:53:10;;;;;;;4.45;2.80;;;7.10;99.90;;;;;;4234527;27;20110;-83
2022/04/29 02:55:11;;;;;;;8.10;2.63;;;7.20;99.90;;;;;;4247878;27;20460;-84
2022/04/29 02:57:12;;;;;;;5.85;3.22;;;6.20;99.90;;;;;;4248315;27;20043;-84
2022/04/29 02:59:13;;;;;;;6.82;2.70;;;7.50;99.90;;;;;;4248010;27;20027;-84
2022/04/29 03:01:14;;;;;;;7.38;3.08;;;7.60;99.90;;;;;;4247250;28;20136;-84
2022/04/29 03:03:14;;;;;;;5.32;2.67;;;6.80;99.90;;;;;;4247899;28;20453;-85
2022/04/29 03:05:15;;;;;;;6.32;2.63;;;6.30;99.90;;;;;;4247868;28;20058;-84
2022/04/29 03:07:16;;;;;;;7.55;2.90;;;7.30;99.90;;;;;;4229526;28;20071;-85
2022/04/29 03:09:16;;;;;;;6.18;2.90;;;7.70;99.90;;;;;;4247733;28;20067;-85
2022/04/29 03:11:17;;;;;;;5.25;3.15;;;7.20;99.90;;;;;;4247586;28;20042;-84
2022/04/29 03:13:18;;;;;;;8.13;3.72;;;6.90;99.90;;;;;;4247939;28;20449;-84
2022/04/29 03:15:19;;;;;;;4.88;2.58;;;5.70;99.90;;;;;;4247528;27;20070;-84
2022/04/29 03:19:39;;;;;;;;;;;7.40;99.90;;;;;;4241286;27;20047;-84
2022/04/29 03:21:40;;;;;;;6.18;2.85;;;6.30;99.90;;;;;;4234494;28;20014;-84
2022/04/29 03:23:41;;;;;;;5.55;2.90;;;6.30;99.90;;;;;;4247421;27;20043;-84
2022/04/29 03:25:42;;;;;;;7.30;3.60;;;6.30;99.90;;;;;;4220648;28;20047;-84
2022/04/29 03:27:43;;;;;;;13.02;4.10;;;7.00;99.90;;;;;;4248360;27;20442;-85
2022/04/29 03:29:44;;;;;;;8.75;2.75;;;7.00;99.90;;;;;;4215156;28;20062;-86
2022/04/29 03:31:44;;;;;;;4.93;3.00;;;6.30;99.90;;;;;;4248253;27;20984;-85
2022/04/29 03:33:45;;;;;;;15.52;4.30;;;6.30;99.90;;;;;;4250959;27;20076;-85
2022/04/29 03:35:47;;;;;;;5.85;3.17;;;6.30;99.90;;;;;;4248311;27;20546;-85
2022/04/29 03:37:51;;;;;;;7.35;2.90;;;7.20;99.90;;;;;;4235965;27;20035;-85
2022/04/29 03:39:53;;;;;;;4.60;3.22;;;6.30;99.90;;;;;;4233997;28;20447;-84
2022/04/29 03:41:54;;;;;;;7.22;3.38;;;6.30;99.90;;;;;;4236440;27;20051;-85
2022/04/29 03:43:54;;;;;;;7.10;3.55;;;6.30;99.90;;;;;;4250890;27;20482;-84
2022/04/29 03:45:56;;;;;;;4.95;3.00;;;6.30;99.90;;;;;;4250706;27;20452;-85
2022/04/29 03:47:57;;;;;;;6.13;2.72;;;7.30;99.90;;;;;;4250391;27;20045;-85
2022/04/29 03:49:59;;;;;;;5.95;3.10;;;7.20;99.90;;;;;;4232576;28;20121;-85
2022/04/29 03:52:00;;;;;;;7.30;3.85;;;6.60;99.90;;;;;;4249433;27;20047;-84
2022/04/29 03:54:01;;;;;;;6.78;3.95;;;6.40;99.90;;;;;;4247806;27;20043;-85
2022/04/29 03:56:02;;;;;;;6.38;3.17;;;6.40;99.90;;;;;;4215339;28;20083;-85
2022/04/29 03:58:04;;;;;;;5.25;2.80;;;6.30;99.90;;;;;;4234148;28;20039;-85
2022/04/29 04:00:05;;;;;;;7.40;3.08;;;6.30;99.90;;;;;;4233398;28;20046;-86
2022/04/29 04:02:06;;;;;;;8.43;3.03;;;6.30;99.90;;;;;;4214673;28;20523;-85
2022/04/29 04:04:06;;;;;;;5.50;3.15;;;7.20;99.90;;;;;;4233451;28;20039;-85
2022/04/29 04:08:27;;;;;;;8.45;3.42;;;6.30;99.90;;;;;;4233083;28;20093;-85
2022/04/29 04:10:28;;;;;;;7.38;3.38;;;6.30;99.90;;;;;;4233447;28;20082;-86
2022/04/29 04:12:43;;;;;;;5.65;3.97;;;6.30;99.90;;;;;;4233354;28;20415;-86
2022/04/29 04:14:44;;;;;;;6.80;2.90;;;6.30;99.90;;;;;;4232733;28;20444;-86
2022/04/29 04:16:45;;;;;;;6.15;2.70;;;6.30;99.90;;;;;;4233218;28;20051;-85
2022/04/29 04:18:46;;;;;;;8.80;3.10;;;6.30;99.90;;;;;;4232726;28;20063;-85
2022/04/29 04:20:48;;;;;;;5.53;3.50;;;6.30;99.90;;;;;;4231503;28;20069;-86
2022/04/29 04:22:49;;;;;;;6.75;3.53;;;7.20;99.90;;;;;;4232993;28;20044;-86
2022/04/29 04:24:49;;;;;;;4.75;3.08;;;6.40;99.90;;;;;;4232643;27;20434;-85
2022/04/29 04:26:50;;;;;;;6.57;3.65;;;6.70;99.90;;;;;;4214374;28;20102;-86
2022/04/29 04:28:51;;;;;;;14.10;3.40;;;6.40;99.90;;;;;;4197828;28;20040;-86
2022/04/29 04:30:51;;;;;;;8.07;3.03;;;6.40;99.90;;;;;;4237638;27;20043;-86
2022/04/29 04:32:52;;;;;;;6.85;3.28;;;6.40;99.90;;;;;;4249944;27;20074;-85
2022/04/29 04:34:54;;;;;;;7.72;3.15;;;6.40;99.90;;;;;;4250254;27;20054;-85
2022/04/29 04:36:55;;;;;;;5.97;3.53;;;6.50;99.90;;;;;;4249704;27;20047;-85
2022/04/29 04:38:55;;;;;;;8.45;3.65;;;7.60;99.90;;;;;;4249851;27;20039;-85
2022/04/29 04:40:58;;;;;;;6.82;3.45;;;6.50;99.90;;;;;;4249528;27;20108;-85
2022/04/29 04:42:58;;;;;;;8.60;3.13;;;6.60;99.90;;;;;;4249708;27;20094;-85
2022/04/29 04:44:59;;;;;;;5.57;3.30;;;6.60;99.90;;;;;;4231333;28;20126;-85
2022/04/29 04:47:00;;;;;;;5.07;2.92;;;6.60;99.90;;;;;;4249653;27;20046;-85
2022/04/29 04:49:00;;;;;;;8.20;3.42;;;6.70;99.90;;;;;;4231173;28;20047;-85
2022/04/29 04:51:04;;;;;;;6.22;3.65;;;7.20;99.90;;;;;;4249732;27;20444;-85
2022/04/29 04:53:04;;;;;;;8.57;4.05;;;7.50;99.90;;;;;;4246241;27;20082;-85
2022/04/29 04:55:06;;;;;;;5.32;3.05;;;6.80;99.90;;;;;;4232240;28;20043;-85
2022/04/29 04:57:07;;;;;;;5.72;3.33;;;6.80;99.90;;;;;;4232301;28;20054;-85
2022/04/29 04:59:08;;;;;;;10.90;3.75;;;;;;;;;;4232718;28;20047;-85
2022/04/29 05:01:09;;;;;;;5.70;3.38;;;;;;;;;;4232521;28;20047;-85
2022/04/29 05:03:10;;;;;;;10.43;3.65;;;;;;;;;;4232053;28;20043;-85
2022/04/29 05:05:11;;;;;;;7.22;4.45;;;;;;;;;;4231755;28;20036;-85
2022/04/29 05:07:12;;;;;;;10.30;3.67;;;;;;;;;;4231921;28;20046;-85
2022/04/29 05:09:13;;;;;;;7.85;4.15;;;;;;;;;;4232010;28;20518;-85
2022/04/29 05:11:14;;;;;;;11.77;4.20;;;;;;;;;;4231852;28;20040;-85
2022/04/29 05:13:15;;;;;;;8.30;3.95;;;;;;;;;;4232477;28;20491;-85
2022/04/29 05:15:16;;;;;;;7.78;4.40;;;;;;;;;;4231909;28;20085;-85
2022/04/29 05:17:18;;;;;;;6.32;3.95;;;;;;;;;;4232307;28;20035;-85
2022/04/29 05:19:19;;;;;;;6.50;3.90;;;;;;;;;;4213582;28;20488;-85
2022/04/29 05:21:20;;;;;;;15.93;6.53;;;;;;;;;;4232119;28;20039;-85
2022/04/29 05:23:21;;;;;;;11.15;5.22;;;;;;;;;;4232149;28;20080;-85
2022/04/29 05:25:22;;;;;;;5.75;3.92;;;;;;;;;;4241851;27;20043;-85
2022/04/29 05:27:23;;;;;;;6.30;3.33;;;;;;;;;;4248517;27;20424;-85
2022/04/29 05:29:24;;;;;;;6.93;3.42;;;;;;;;;;4233148;27;20457;-85
2022/04/29 05:31:25;;;;;;;7.97;3.75;;;;;;;;;;4241709;27;20050;-85
2022/04/29 05:33:26;;;;;;;5.35;3.30;;;;;;;;;;4248829;27;20039;-85
2022/04/29 05:35:27;;;;;;;7.30;3.75;;;;;;;;;;4248927;27;20491;-85
2022/04/29 05:37:29;;;;;;;7.53;3.78;;;;;;;;;;4246473;27;20122;-85
2022/04/29 05:42:15;;;;;;;7.60;3.35;;;;;;;;;;4189176;28;20135;-85
2022/04/29 05:44:16;;;;;;;7.70;3.00;;;;;;;;;;4181117;28;20045;-85
2022/04/29 05:46:17;;;;;;;5.38;2.75;;;;;;;;;;4188423;28;20044;-85
2022/04/29 05:48:18;;;;;;;9.82;4.13;;;;;;;;;;4229786;28;20054;-85
2022/04/29 05:50:20;;;;;;;10.07;3.20;;;;;;;;;;4247810;27;20445;-85
2022/04/29 05:52:21;;;;;;;7.45;2.80;;;;;;;;;;4247843;27;20044;-85
2022/04/29 05:54:22;;;;;;;6.47;2.75;;;;;;;;;;4248265;27;20036;-85
2022/04/29 05:56:24;;;;;;;6.70;3.25;;;;;;;;;;4242340;27;20121;-85
2022/04/29 05:58:25;;;;;;;5.68;3.28;;;;;;;;;;4228268;28;20040;-86
2022/04/29 06:00:27;;;;;;;5.22;3.00;;;;;;;;;;4247799;27;20039;-85
2022/04/29 06:02:28;;;;;;;10.05;3.30;;;;;;;;;;4247136;27;20039;-86
2022/04/29 06:04:28;;;;;;;6.40;3.08;;;6.90;99.90;;;;;;4237925;27;20043;-83
2022/04/29 06:06:29;;;;;;;6.47;3.38;;;8.50;99.90;;;;;;4244787;27;20605;-84
2022/04/29 06:08:30;;;;;;;6.65;3.10;;;8.50;99.90;;;;;;4229539;28;20044;-84
2022/04/29 06:10:30;;;;;;;7.35;3.28;;;8.50;99.90;;;;;;4247911;27;20479;-85
2022/04/29 06:12:40;;;;;;;5.22;2.75;;;9.30;99.90;;;;;;4249513;27;20039;-84
2022/04/29 06:14:43;;;;;;;6.25;3.00;;;8.50;99.90;;;;;;4248425;27;20079;-84
2022/04/29 06:16:45;;;;;;;5.35;2.53;;;8.60;99.90;;;;;;4243691;27;20126;-84
2022/04/29 06:18:46;;;;;;;5.55;2.58;;;8.70;99.90;;;;;;4242602;27;20156;-83
2022/04/29 06:20:48;;;;;;;5.55;2.70;;;9.60;99.90;;;;;;4234437;27;20048;-85
2022/04/29 06:22:48;;;;;;;6.00;3.35;;;9.30;99.90;;;;;;4242955;27;20487;-85
2022/04/29 06:24:50;;;;;;;5.95;2.83;;;9.20;99.90;;;;;;4221638;28;20092;-85
2022/04/29 06:26:50;;;;;;;6.00;3.00;;;9.70;99.90;;;;;;4242699;27;20051;-86
2022/04/29 06:28:51;;;;;;;4.20;3.00;;;9.60;99.90;;;;;;4246211;27;20045;-85
2022/04/29 06:30:52;;;;;;;7.03;3.50;;;8.90;99.90;;;;;;4246515;27;20080;-84
2022/04/29 06:32:54;;;;;;;4.25;2.90;;;9.00;99.90;;;;;;4247194;27;20043;-85
2022/04/29 06:34:56;;;;;;;7.90;3.22;;;9.80;99.90;;;;;;4238411;27;20091;-84
2022/04/29 06:36:57;;;;;;;5.13;2.83;;;9.20;99.90;;;;;;4245792;27;20054;-84
2022/04/29 06:38:58;;;;;;;6.05;3.03;;;9.50;99.90;;;;;;4240001;27;20039;-84
2022/04/29 06:41:00;;;;;;;4.20;2.53;;;9.20;99.90;;;;;;4247208;27;20039;-85
2022/04/29 06:43:00;;;;;;;4.20;2.90;;;9.30;99.90;;;;;;4239383;27;20048;-85
2022/04/29 06:45:01;;;;;;;6.18;2.95;;;10.00;99.90;;;;;;4242889;27;20047;-85
2022/04/29 06:47:02;;;;;;;11.93;2.80;;;10.10;99.90;;;;;;4246077;27;20071;-84
2022/04/29 06:49:03;;;;;;;8.80;4.53;;;9.30;99.90;;;;;;4247520;27;20051;-85
2022/04/29 06:51:04;;;;;;;8.23;3.70;;;9.80;99.90;;;;;;4245938;27;20043;-85
2022/04/29 06:53:05;;;;;;;8.55;3.47;;;9.40;99.90;;;;;;4246850;27;20555;-85
2022/04/29 06:55:06;;;;;;;10.85;2.88;;;9.40;99.90;;;;;;4245669;27;20039;-85
2022/04/29 06:57:09;;;;;;;5.68;2.50;;;9.40;99.90;;;;;;4247864;27;20043;-85
2022/04/29 06:59:10;;;;;;;6.88;2.78;;;10.00;99.90;;;;;;4246877;27;20047;-85
2022/04/29 07:01:11;;;;;;;5.32;2.47;;;9.50;99.90;;;;;;4243603;27;20082;-85
2022/04/29 07:03:12;;;;;;;9.43;3.10;;;9.60;99.90;;;;;;4246815;28;20083;-85
2022/04/29 07:05:14;;;;;;;4.00;2.83;;;9.60;99.90;;;;;;4244511;28;20069;-84
2022/04/29 07:07:16;;;;;;;5.47;2.67;;;9.60;99.90;;;;;;4238234;28;20035;-84
2022/04/29 07:09:16;;;;;;;8.48;2.45;;;9.70;99.90;;;;;;4245132;28;20475;-87
2022/04/29 07:11:17;;;;;;;4.28;2.42;;;9.80;99.90;;;;;;4246027;28;20031;-87
2022/04/29 07:13:18;;;;;;;10.07;2.83;;;;;;;;;;4243224;28;20031;-86
2022/04/29 07:15:21;;;;;;;9.10;3.17;;;;;;;;;;4243083;28;20495;-86
2022/04/29 07:17:23;;;;;;;4.90;1.88;;;;;;;;;;4242363;28;20035;-86
2022/04/29 07:19:24;;;;;;;4.82;2.08;;;9.90;99.90;;;;;;4243007;27;20063;-86
2022/04/29 07:21:24;;;;;;;5.22;2.00;;;10.60;99.90;;;;;;4232982;28;20074;-87
2022/04/29 07:23:25;;;;;;;1.90;1.17;;;10.10;99.60;;;;;;4242911;28;20047;-86
2022/04/29 07:25:26;;;;;;;5.78;1.35;;;10.10;99.40;;;;;;4245498;28;20399;-86
2022/04/29 07:27:28;;;;;;;5.28;1.30;;;10.10;99.30;;;;;;4235701;28;20045;-86
2022/04/29 07:29:30;;;;;;;2.42;1.23;;;10.30;99.30;;;;;;4240521;28;20422;-86
2022/04/29 07:31:31;;;;;;;2.72;1.63;;;10.00;99.10;;;;;;4225953;28;20044;-87
2022/04/29 07:33:32;;;;;;;2.08;1.10;;;10.60;99.10;;;;;;4236048;28;20074;-87
2022/04/29 07:42:34;;;;;;;4.72;1.63;;;10.10;98.30;;;;;;4244794;28;20039;-86
2022/04/29 07:44:34;;;;;;;4.47;2.10;;;10.10;98.20;;;;;;4247327;28;20547;-86
2022/04/29 07:46:36;;;;;;;6.55;2.80;;;10.10;98.10;;;;;;4243907;28;20032;-86
2022/04/29 07:48:38;;;;;;;6.55;1.90;;;10.90;98.30;;;;;;4245722;28;20042;-86
2022/04/29 07:50:39;;;;;;;5.50;2.10;;;10.10;97.90;;;;;;4225253;28;20503;-86
2022/04/29 07:52:45;;;;;;;5.40;2.28;;;10.70;98.10;;;;;;4246891;28;20040;-87
2022/04/29 07:54:47;;;;;;;4.93;2.00;;;10.20;97.80;;;;;;4233742;28;20441;-87
2022/04/29 07:56:48;;;;;;;5.03;2.10;;;10.40;98.00;;;;;;4221824;28;20407;-86
2022/04/29 07:58:49;;;;;;;2.20;1.80;;;11.10;98.20;;;;;;4223522;28;20052;-85
2022/04/29 08:00:50;;;;;;;4.63;2.13;;;11.10;98.10;;;;;;4237661;28;20100;-86
2022/04/29 08:02:51;;;;;;;2.38;1.27;;;10.40;97.80;;;;;;4242134;27;20047;-86
2022/04/29 08:04:52;;;;;;;4.35;1.77;;;11.00;97.70;;;;;;4243860;27;20031;-86
2022/04/29 08:06:53;;;;;;;4.75;1.90;;;10.50;97.50;;;;;;4249211;27;20043;-88
2022/04/29 08:08:54;;;;;;;4.93;1.65;;;10.90;97.70;;;;;;4247552;27;20530;-86
2022/04/29 08:10:55;;;;;;;3.13;1.17;;;10.50;97.20;;;;;;4248752;27;20132;-86
2022/04/29 08:12:59;;;;;;;4.13;1.42;;;10.60;96.90;;;;;;4239521;27;20085;-86
2022/04/29 08:15:00;;;;;;;4.00;2.30;;;11.00;96.60;;;;;;4243091;27;20035;-87
2022/04/29 08:17:02;;;;;;;7.65;2.13;;;11.00;96.50;;;;;;4240160;27;20039;-86
2022/04/29 08:19:04;;;;;;;10.50;2.45;;;10.70;96.30;;;;;;4246440;27;20055;-86
2022/04/29 08:21:05;;;;;;;7.05;2.72;;;10.70;96.10;;;;;;4248247;27;20055;-86
2022/04/29 08:23:06;;;;;;;5.20;1.20;;;10.70;95.90;;;;;;4249725;27;20491;-86
2022/04/29 08:25:07;;;;;;;9.40;1.85;;;10.80;95.90;;;;;;4239595;27;20081;-86
2022/04/29 08:27:08;;;;;;;6.78;2.20;;;10.80;95.90;;;;;;4236417;27;20491;-86
2022/04/29 08:29:10;;;;;;;6.57;2.17;;;10.90;95.90;;;;;;4247505;27;20043;-86
2022/04/29 08:31:11;;;;;;;5.75;2.00;;;10.80;95.90;;;;;;4242383;27;20070;-86
2022/04/29 08:33:13;;;;;;;5.72;3.15;;;10.90;95.80;;;;;;4250003;27;20039;-86
2022/04/29 08:35:14;;;;;;;3.35;1.90;;;10.90;95.80;;;;;;4245527;27;20402;-87
2022/04/29 08:37:14;;;;;;;6.38;2.05;;;11.10;95.70;;;;;;4228464;28;20044;-87
2022/04/29 08:39:15;;;;;;;8.00;2.17;;;11.00;95.60;;;;;;4248382;27;20050;-86
2022/04/29 08:41:19;;;;;;;5.25;1.65;;;11.10;95.50;;;;;;4232763;27;20047;-86
2022/04/29 08:43:21;;;;;;;13.48;2.13;;;11.00;95.40;;;;;;4235981;27;20036;-87
2022/04/29 08:45:22;;;;;;;5.60;2.88;;;11.10;95.40;;;;;;4244395;27;20043;-86
2022/04/29 08:47:24;;;;;;;5.30;1.70;;;;;;;;;;4205829;28;20124;-87
2022/04/29 08:49:26;;;;;;;1.80;1.45;;;11.20;95.20;;;;;;4215169;28;20161;-86
2022/04/29 08:51:26;;;;;;;8.82;1.95;;;11.20;94.90;;;;;;4236941;27;20042;-86
2022/04/29 08:53:27;;;;;;;7.85;2.88;;;11.40;94.50;;;;;;4244771;27;20038;-86
2022/04/29 09:00:10;;;;;;;3.35;1.70;;;;;;;;;;4247285;27;20036;-86
2022/04/29 09:02:12;;;;;;;5.03;1.63;;;;;;;;;;4244504;27;20051;-85
2022/04/29 09:04:13;;;;;;;4.22;1.60;;;;;;;;;;4245243;27;20145;-86
2022/04/29 09:06:17;;;;;;;4.25;1.63;;;;;;;;;;4246329;27;20035;-86
2022/04/29 09:08:22;;;;;;;2.13;1.67;;;;;;;;;;4235881;27;20047;-86
2022/04/29 09:10:24;;;;;;;6.22;2.03;;;;;;;;;;4239838;27;20126;-86
2022/04/29 09:12:26;;;;;;;8.57;2.20;;;;;;;;;;4253747;27;20035;-86
2022/04/29 09:14:27;;;;;;;2.65;1.63;;;;;;;;;;4234016;28;20082;-86
2022/04/29 09:16:28;;;;;;;6.22;1.95;;;;;;;;;;4254508;27;20088;-86
2022/04/29 09:18:43;;;;;;;4.53;1.63;;;;;;;;;;4251802;27;20066;-86
2022/04/29 09:20:52;;;;;;;7.45;2.05;;;;;;;;;;4239830;27;20043;-87
2022/04/29 09:22:53;;;;;;;8.57;2.17;;;;;;;;;;4249741;27;20046;-86
2022/04/29 09:25:02;;;;;;;4.72;2.40;;;;;;;;;;4254874;27;20035;-86
2022/04/29 09:27:07;;;;;;;8.40;2.40;;;;;;;;;;4248181;27;20039;-86
2022/04/29 09:29:20;;;;;;;6.15;2.35;;;;;;;;;;4254238;27;20043;-86
2022/04/29 09:31:21;;;;;;;8.32;2.88;;;;;;;;;;4247597;27;20035;-86
2022/04/29 09:33:25;;;;;;;4.50;2.42;;;;;;;;;;4251803;27;20421;-86
2022/04/29 09:35:41;;;;;;;6.70;2.85;;;;;;;;;;4239893;27;20047;-86
2022/04/29 09:39:26;;;;;;;5.25;1.95;;;;;;;;;;4230517;28;20048;-86
2022/04/29 09:40:05;;;;;;;4.07;2.30;;;;;;;;;;4241226;27;20492;-86
2022/04/29 09:42:06;;;;;;;4.53;1.67;;;;;;;;;;4248458;27;20089;-86
2022/04/29 09:44:25;;;;;;;4.32;1.65;;;;;;;;;;4250723;27;20043;-86
2022/04/29 09:46:26;;;;;;;5.40;2.20;;;;;;;;;;4244773;27;20108;-86
2022/04/29 09:48:29;;;;;;;3.28;1.92;;;;;;;;;;4248234;27;20039;-85
2022/04/29 09:50:50;;;;;;;7.72;2.08;;;11.50;94.70;;;;;;4252797;27;20056;-86
2022/04/29 09:52:51;;;;;;;6.63;2.35;;;11.60;92.00;;;;;;4250135;27;20057;-85
2022/04/29 09:54:52;;;;;;;5.60;2.20;;;11.60;92.40;;;;;;4250080;27;20047;-85
2022/04/29 09:57:04;;;;;;;7.20;2.10;;;11.50;92.30;;;;;;4234802;28;20031;-85
2022/04/29 09:59:08;;;;;;;4.45;2.30;;;11.50;92.20;;;;;;4235709;27;20043;-85
2022/04/29 10:01:10;;;;;;;5.47;1.83;;;11.50;92.20;;;;;;4228897;28;20043;-86
2022/04/29 10:03:11;;;;;;;7.72;2.75;;;11.50;92.10;;;;;;4233430;27;20031;-86
2022/04/29 10:05:12;;;;;;;6.82;2.20;;;11.40;92.10;;;;;;4244808;27;20050;-85
2022/04/29 10:07:15;;;;;;;9.00;2.30;;;11.50;92.20;;;;;;4233088;28;20122;-85
2022/04/29 10:09:18;;;;;;;4.53;2.88;;;11.50;92.40;;;;;;4238065;27;20035;-85
2022/04/29 10:11:23;;;;;;;3.78;2.35;;;11.50;92.40;;;;;;4246588;27;20425;-86
2022/04/29 10:13:26;;;;;;;6.93;2.58;;;11.60;92.40;;;;;;4243256;27;20124;-85
2022/04/29 10:15:27;;;;;;;3.55;2.40;;;11.70;92.30;;;;;;4246364;27;20376;-86
2022/04/29 10:22:18;;;;;;;5.80;2.42;;;11.30;92.20;;;;;;4241568;27;20402;-85
2022/04/29 10:24:23;;;;;;;5.60;2.58;;;11.30;92.30;;;;;;4237773;27;20039;-86
2022/04/29 10:26:25;;;;;;;5.35;2.15;;;11.20;92.30;;;;;;4240157;27;20440;-85
2022/04/29 10:28:26;;;;;;;6.90;2.92;;;11.10;92.20;;;;;;4240786;27;20040;-85
2022/04/29 10:30:32;;;;;;;12.23;2.50;;;11.10;92.30;;;;;;4218516;28;20111;-85
2022/04/29 10:33:00;;;;;;;5.88;2.40;;;11.20;92.20;;;;;;4239910;27;20051;-86
2022/04/29 10:35:00;;;;;;;4.55;2.28;;;11.20;92.10;;;;;;4209518;27;20044;-86
2022/04/29 10:37:10;;;;;;;4.03;2.42;;;11.20;92.20;;;;;;4244673;27;20067;-85
2022/04/29 10:39:18;;;;;;;3.13;2.20;;;11.20;91.90;;;;;;4218225;28;20060;-86
2022/04/29 10:41:26;;;;;;;7.77;2.27;;;11.20;92.00;;;;;;4245637;27;20479;-85
2022/04/29 10:43:28;;;;;;;3.33;1.90;;;11.10;92.00;;;;;;4236608;27;20035;-85
2022/04/29 10:45:34;;;;;;;7.15;2.17;;;11.40;91.80;;;;;;4237121;27;20449;-85
2022/04/29 10:47:40;;;;;;;3.80;2.20;;;11.20;91.40;;;;;;4229045;28;20076;-86
2022/04/29 10:49:41;;;;;;;4.10;2.08;;;11.30;91.50;;;;;;4246856;27;20475;-86
2022/04/29 10:51:50;;;;;;;4.30;2.10;;;11.40;91.40;;;;;;4232938;28;20073;-86
2022/04/29 10:53:56;;;;;;;4.80;2.08;;;11.30;91.50;;;;;;4217716;28;20056;-85
2022/04/29 10:56:30;;;;;;;4.20;2.28;;;11.40;91.30;;;;;;4231919;27;20042;-85
2022/04/29 10:58:30;;;;;;;2.70;2.13;;;11.40;91.20;;;;;;4238364;27;20035;-85
2022/04/29 11:00:33;;;;;;;3.63;1.95;;;11.50;91.00;;;;;;4240638;27;20031;-85
2022/04/29 11:02:34;;;;;;;4.20;2.60;;;11.50;90.80;;;;;;4238099;28;20114;-86
2022/04/29 11:04:34;;;;;;;2.53;1.70;;;11.50;90.70;;;;;;4237283;28;20459;-86
2022/04/29 11:06:51;;;;;;;4.55;2.22;;;11.60;90.50;;;;;;4235520;28;20096;-86
2022/04/29 11:08:53;;;;;;;5.38;2.00;;;;;;;;;;4231683;28;20063;-85
2022/04/29 11:10:58;;;;;;;3.67;1.75;;;11.60;90.30;;;;;;4236532;28;20051;-86
2022/04/29 11:13:03;;;;;;;3.78;1.60;;;11.80;90.00;;;;;;4228234;28;20040;-86
2022/04/29 11:15:12;;;;;;;5.22;1.45;;;11.80;90.00;;;;;;4234503;28;20050;-86
2022/04/29 11:17:14;;;;;;;2.72;1.35;;;11.80;89.30;;;;;;4242151;28;20108;-86
2022/04/29 11:19:21;;;;;;;2.55;1.27;;;11.80;89.20;;;;;;4235298;28;20075;-86
2022/04/29 11:26:12;;;;;;;2.20;1.50;;;12.20;88.60;;;;;;4235257;28;20051;-86